ADDS METAR Data INFO
IDs: Format: Raw Decoded Include TAF

Data at: 0252 UTC 21 Oct 2017

KRZR 210235Z AUTO 00000KT 10SM CLR 11/11 A3021 RMK A01
KRZR 210215Z AUTO 00000KT 10SM CLR 12/11 A3021 RMK A01
KRZR 210155Z AUTO 00000KT 10SM CLR 12/12 A3020 RMK A01
KRZR 210135Z AUTO 00000KT 10SM CLR 12/12 A3020 RMK A01
KRZR 210115Z AUTO 00000KT 10SM CLR 13/12 A3019 RMK A01
KRZR 210055Z AUTO 00000KT 8SM CLR 13/12 A3019 RMK A01
KRZR 210035Z AUTO 00000KT 1 1/4SM BR CLR 14/12 A3019 RMK A01 VIS 3/4V5
KRZR 210015Z AUTO 00000KT 4SM BR CLR 14/13 A3019 RMK A01
KRZR 202355Z AUTO 00000KT 4SM BR CLR 15/13 A3019 RMK A01
KRZR 202335Z AUTO 00000KT 10SM CLR 16/13 A3018 RMK A01
KRZR 202315Z AUTO 00000KT 10SM CLR 18/14 A3017 RMK A01
KRZR 202255Z AUTO 00000KT 10SM CLR 19/14 A3017 RMK A01
KRZR 202235Z AUTO 00000KT 10SM CLR 21/14 A3017 RMK A01
KRZR 202215Z AUTO 00000KT 10SM CLR 22/12 A3016 RMK A01
KRZR 202155Z AUTO 00000KT 10SM CLR 24/12 A3016 RMK A01
KRZR 202135Z AUTO 01004KT 10SM CLR 24/10 A3016 RMK A01
KRZR 202115Z AUTO 01004KT 10SM CLR 25/10 A3017 RMK A01
KRZR 202055Z AUTO VRB04KT 10SM CLR 25/09 A3017 RMK A01
KRZR 202035Z AUTO 00000KT 10SM CLR 25/09 A3018 RMK A01
KRZR 202015Z AUTO VRB06KT 10SM CLR 25/09 A3018 RMK A01
KRZR 201955Z AUTO VRB04KT 10SM CLR 25/09 A3019 RMK A01
KRZR 201935Z AUTO 02005KT 10SM CLR 24/09 A3019 RMK A01
KRZR 201915Z AUTO 00000KT 10SM CLR 24/10 A3020 RMK A01
KRZR 201855Z AUTO 01005KT 10SM CLR 24/09 A3020 RMK A01
KRZR 201835Z AUTO VRB04KT 10SM CLR 24/07 A3022 RMK A01
KRZR 201815Z AUTO VRB04KT 10SM CLR 23/08 A3023 RMK A01
KRZR 201755Z AUTO 36005KT 10SM CLR 22/08 A3025 RMK A01
KRZR 201735Z AUTO 00000KT 10SM CLR 22/09 A3025 RMK A01
KRZR 201715Z AUTO VRB04KT 10SM CLR 21/10 A3026 RMK A01
KRZR 201655Z AUTO 36004KT 10SM CLR 20/09 A3027 RMK A01
KRZR 201635Z AUTO 01006KT 10SM CLR 19/10 A3028 RMK A01
KRZR 201615Z AUTO 03006KT 10SM CLR 18/10 A3029 RMK A01
KRZR 201555Z AUTO 01005KT 10SM CLR 17/10 A3029 RMK A01
KRZR 201535Z AUTO 36004KT 10SM CLR 16/11 A3030 RMK A01
KRZR 201515Z AUTO 03004KT 10SM CLR 15/11 A3031 RMK A01
KRZR 201455Z AUTO 03006KT 10SM CLR 13/10 A3031 RMK A01
KRZR 201435Z AUTO 04007KT 10SM CLR 12/10 A3031 RMK A01
KRZR 201415Z AUTO 00000KT 10SM CLR 11/10 A3032 RMK A01
KRZR 201355Z AUTO 00000KT 9SM CLR 09/09 A3032 RMK A01
KRZR 201335Z AUTO 00000KT 9SM CLR 08/08 A3032 RMK A01
KRZR 201315Z AUTO 00000KT 6SM BR FEW002 07/07 A3032 RMK A01
KRZR 201255Z AUTO 00000KT 3/4SM BR OVC002 06/06 A3031 RMK A01
KRZR 201235Z AUTO 00000KT M1/4SM FG OVC002 06/06 A3031 RMK A01
KRZR 201215Z AUTO 00000KT 1/4SM FG OVC002 05/05 A3031 RMK A01
KRZR 201155Z AUTO 00000KT M1/4SM FG OVC002 05/05 A3030 RMK A01
KRZR 201135Z AUTO 00000KT M1/4SM FG OVC002 05/05 A3030 RMK A01
KRZR 201115Z AUTO 00000KT 1/2SM FG OVC002 06/06 A3029 RMK A01
KRZR 201055Z AUTO 00000KT 1/4SM FG OVC002 06/06 A3029 RMK A01
KRZR 201035Z AUTO 00000KT M1/4SM FG OVC002 06/06 A3028 RMK A01
KRZR 201015Z AUTO 00000KT 7SM OVC002 05/05 A3028 RMK A01
KRZR 200955Z AUTO 00000KT 1 1/2SM BR OVC002 05/05 A3028 RMK A01
KRZR 200935Z AUTO 00000KT 5SM BR BKN003 05/05 A3027 RMK A01
KRZR 200915Z AUTO 00000KT 1/4SM FG OVC003 05/05 A3027 RMK A01
KRZR 200855Z AUTO 00000KT 10SM SCT003 05/05 A3026 RMK A01
KRZR 200835Z AUTO 00000KT 10SM FEW002 05/05 A3026 RMK A01
KRZR 200815Z AUTO 00000KT 9SM CLR 05/05 A3026 RMK A01
KRZR 200755Z AUTO 00000KT 4SM BR CLR 06/06 A3025 RMK A01
KRZR 200735Z AUTO 00000KT 5SM BR CLR 06/06 A3025 RMK A01
KRZR 200715Z AUTO 00000KT 9SM CLR 06/06 A3025 RMK A01
KRZR 200655Z AUTO 00000KT 8SM CLR 06/06 A3025 RMK A01
KRZR 200635Z AUTO 00000KT 9SM CLR 06/06 A3025 RMK A01
KRZR 200615Z AUTO 00000KT 10SM CLR 06/06 A3025 RMK A01
KRZR 200555Z AUTO 00000KT 4SM BR CLR 06/06 A3025 RMK A01
KRZR 200535Z AUTO 00000KT 10SM CLR 07/07 A3026 RMK A01
KRZR 200515Z AUTO 00000KT 9SM CLR 07/07 A3026 RMK A01
KRZR 200455Z AUTO 00000KT 10SM CLR 07/07 A3026 RMK A01
KRZR 200435Z AUTO 00000KT 10SM CLR 07/07 A3026 RMK A01
KRZR 200415Z AUTO 00000KT 2 1/2SM BR CLR 07/07 A3026 RMK A01
KRZR 200355Z AUTO 00000KT 10SM CLR 08/08 A3026 RMK A01
KRZR 200335Z AUTO 00000KT 10SM CLR 08/08 A3026 RMK A01
KRZR 200315Z AUTO 00000KT 10SM CLR 08/08 A3026 RMK A01
KRZR 200255Z AUTO 00000KT 10SM CLR 09/08 A3026 RMK A01
KRZR 200235Z AUTO 00000KT 10SM CLR 09/09 A3026 RMK A01
KRZR 200215Z AUTO 00000KT 10SM CLR 09/09 A3025 RMK A01
KRZR 200155Z AUTO 00000KT 10SM CLR 10/09 A3025 RMK A01
KRZR 200135Z AUTO 00000KT 10SM CLR 10/09 A3025 RMK A01
KRZR 200115Z AUTO 00000KT 10SM CLR 10/10 A3024 RMK A01
KRZR 200055Z AUTO 00000KT 10SM CLR 11/10 A3025 RMK A01
KRZR 200035Z AUTO 00000KT 10SM CLR 11/10 A3024 RMK A01
KRZR 200015Z AUTO 00000KT 10SM CLR 12/10 A3024 RMK A01
KRZR 192355Z AUTO 00000KT 10SM CLR 12/11 A3024 RMK A01
KRZR 192335Z AUTO 00000KT 10SM CLR 14/11 A3024 RMK A01
KRZR 192315Z AUTO 00000KT 10SM CLR 15/11 A3024 RMK A01
KRZR 192255Z AUTO 00000KT 10SM CLR 17/10 A3023 RMK A01
KRZR 192235Z AUTO 00000KT 10SM CLR 19/10 A3024 RMK A01
KRZR 192215Z AUTO 00000KT 10SM CLR 21/09 A3023 RMK A01
KRZR 192155Z AUTO 00000KT 10SM CLR 22/07 A3023 RMK A01
KRZR 192135Z AUTO 00000KT 10SM CLR 22/07 A3023 RMK A01
KRZR 192115Z AUTO 00000KT 10SM CLR 22/07 A3024 RMK A01
KRZR 192055Z AUTO 00000KT 10SM CLR 22/07 A3024 RMK A01
KRZR 192035Z AUTO 02004KT 10SM CLR 22/07 A3024 RMK A01
KRZR 192015Z AUTO 01003KT 10SM CLR 22/06 A3025 RMK A01
KRZR 191955Z AUTO VRB04KT 10SM CLR 22/06 A3025 RMK A01
KRZR 191935Z AUTO 05005KT 10SM CLR 22/06 A3025 RMK A01
KRZR 191915Z AUTO 00000KT 10SM CLR 21/06 A3026 RMK A01
KRZR 191855Z AUTO 03005KT 10SM CLR 21/07 A3027 RMK A01
KRZR 191835Z AUTO 34004KT 10SM CLR 21/07 A3027 RMK A01
KRZR 191815Z AUTO 00000KT 10SM CLR 20/07 A3028 RMK A01
KRZR 191755Z AUTO VRB04KT 10SM CLR 20/07 A3029 RMK A01
KRZR 191735Z AUTO 00000KT 10SM CLR 20/06 A3030 RMK A01
KRZR 191715Z AUTO 00000KT 10SM CLR 19/06 A3031 RMK A01
KRZR 191655Z AUTO 00000KT 10SM CLR 19/07 A3032 RMK A01
KRZR 191635Z AUTO VRB03KT 10SM CLR 18/08 A3032 RMK A01
KRZR 191615Z AUTO VRB03KT 10SM CLR 17/09 A3033 RMK A01
KRZR 191555Z AUTO 00000KT 10SM CLR 16/09 A3034 RMK A01
KRZR 191535Z AUTO 06003KT 10SM CLR 16/09 A3034 RMK A01
KRZR 191515Z AUTO 00000KT 10SM CLR 15/09 A3034 RMK A01
KRZR 191455Z AUTO 00000KT 10SM CLR 14/10 A3034 RMK A01